Time;durP1;ratioP1;P1;durP2;ratioP2;P2;SDS_P1;SDS_P2;PMS_P1;PMS_P2;Temp;Humidity;BMP_temperature;BMP_pressure;BME280_temperature;BME280_humidity;BME280_pressure;Samples;Min_cycle;Max_cycle;Signal;HPM_P1;HPM_P2
2022/04/24 00:01:57;;;;;;;8.52;4.70;;;9.80;93.70;;;;;;5046362;28;20483;-77
2022/04/24 00:04:24;;;;;;;9.25;4.72;;;9.70;94.00;;;;;;5045371;28;20400;-78
2022/04/24 00:06:53;;;;;;;8.88;4.88;;;9.70;94.40;;;;;;5061854;28;20033;-77
2022/04/24 00:09:23;;;;;;;7.68;4.55;;;9.70;94.70;;;;;;5058218;28;20166;-77
2022/04/24 00:11:49;;;;;;;6.30;4.32;;;9.60;95.10;;;;;;5026384;28;20480;-77
2022/04/24 00:14:17;;;;;;;6.88;4.35;;;9.70;95.40;;;;;;5017760;28;20060;-77
2022/04/24 00:16:44;;;;;;;9.00;4.70;;;9.60;95.60;;;;;;5038415;28;20062;-76
2022/04/24 00:19:09;;;;;;;8.18;4.38;;;9.60;95.80;;;;;;5018148;28;20042;-77
2022/04/24 00:21:35;;;;;;;6.13;4.13;;;9.60;96.10;;;;;;5024227;28;20029;-76
2022/04/24 00:24:01;;;;;;;6.93;4.18;;;9.60;96.40;;;;;;5037280;28;20037;-77
2022/04/24 00:26:27;;;;;;;7.30;4.53;;;9.50;96.60;;;;;;5024094;28;20042;-76
2022/04/24 00:28:53;;;;;;;9.77;4.70;;;9.50;96.90;;;;;;5035576;28;20029;-77
2022/04/24 00:31:19;;;;;;;7.50;4.47;;;9.50;97.00;;;;;;5037902;28;20024;-77
2022/04/24 00:33:45;;;;;;;7.85;4.05;;;9.50;97.30;;;;;;5039462;28;20024;-77
2022/04/24 00:36:10;;;;;;;8.10;4.35;;;9.50;97.60;;;;;;5038990;28;20033;-77
2022/04/24 00:38:36;;;;;;;9.60;4.80;;;9.40;97.70;;;;;;5034913;28;20025;-76
2022/04/24 00:41:03;;;;;;;6.68;4.43;;;9.40;98.00;;;;;;5037873;28;20028;-76
2022/04/24 00:43:29;;;;;;;7.57;4.53;;;9.40;98.10;;;;;;5056181;28;20127;-77
2022/04/24 00:46:12;;;;;;;9.40;4.47;;;9.30;98.30;;;;;;5036088;28;20108;-79
2022/04/24 00:48:42;;;;;;;7.05;4.00;;;9.30;98.50;;;;;;5035848;28;20082;-76
2022/04/24 00:51:11;;;;;;;7.85;3.92;;;9.30;98.60;;;;;;5041732;28;20090;-76
2022/04/24 00:53:37;;;;;;;7.72;4.38;;;9.30;98.80;;;;;;5019361;28;20029;-76
2022/04/24 00:56:05;;;;;;;9.68;4.22;;;9.30;99.00;;;;;;5052567;28;20025;-76
2022/04/24 00:58:32;;;;;;;6.78;4.10;;;9.20;99.10;;;;;;5038570;28;20033;-76
2022/04/24 01:00:59;;;;;;;5.53;4.05;;;9.20;99.20;;;;;;5025365;28;20024;-76
2022/04/24 01:03:25;;;;;;;6.90;4.43;;;9.10;99.10;;;;;;5052939;28;20492;-76
2022/04/24 01:05:51;;;;;;;5.22;3.70;;;9.10;99.30;;;;;;5019213;28;20127;-75
2022/04/24 01:08:16;;;;;;;8.57;4.20;;;9.10;99.30;;;;;;5038654;28;20481;-76
2022/04/24 01:10:42;;;;;;;6.57;3.72;;;9.10;99.40;;;;;;5037645;28;20024;-76
2022/04/24 01:13:07;;;;;;;10.00;4.03;;;9.00;99.40;;;;;;5038030;28;20048;-77
2022/04/24 01:15:33;;;;;;;6.25;4.10;;;9.00;99.70;;;;;;5019966;28;20434;-76
2022/04/24 01:18:00;;;;;;;8.40;4.30;;;9.00;99.90;;;;;;5034501;28;20123;-76
2022/04/24 01:20:26;;;;;;;7.03;3.88;;;8.90;99.90;;;;;;5037963;28;20082;-76
2022/04/24 01:22:52;;;;;;;7.05;3.90;;;8.90;99.90;;;;;;5037616;28;20103;-76
2022/04/24 01:25:18;;;;;;;8.05;4.38;;;9.00;99.90;;;;;;5051399;28;20033;-77
2022/04/24 01:27:44;;;;;;;7.20;3.78;;;8.90;99.90;;;;;;5052612;28;20033;-76
2022/04/24 01:30:10;;;;;;;8.50;4.60;;;8.80;99.90;;;;;;5036000;28;20048;-77
2022/04/24 01:32:38;;;;;;;5.70;3.70;;;8.80;99.90;;;;;;5035626;28;20035;-77
2022/04/24 01:35:05;;;;;;;7.00;3.65;;;8.80;99.90;;;;;;5058303;28;20037;-77
2022/04/24 01:37:32;;;;;;;5.95;3.90;;;8.80;99.90;;;;;;5020762;28;20063;-76
2022/04/24 01:39:57;;;;;;;8.10;4.80;;;8.80;99.90;;;;;;5036625;28;20036;-76
2022/04/24 01:42:24;;;;;;;7.38;3.88;;;8.80;99.90;;;;;;5036085;28;20432;-77
2022/04/24 01:44:50;;;;;;;5.45;3.70;;;8.80;99.90;;;;;;5036359;28;20033;-76
2022/04/24 01:47:16;;;;;;;8.38;4.20;;;8.80;99.90;;;;;;5039046;28;20029;-76
2022/04/24 01:49:42;;;;;;;5.07;3.50;;;8.80;99.90;;;;;;5035898;28;20025;-76
2022/04/24 01:52:08;;;;;;;6.82;3.92;;;8.80;99.90;;;;;;5036599;28;20033;-76
2022/04/24 01:54:34;;;;;;;6.25;3.65;;;8.80;99.90;;;;;;5036216;28;20508;-77
2022/04/24 01:56:59;;;;;;;8.75;3.78;;;8.80;99.90;;;;;;5033009;28;20252;-76
2022/04/24 01:59:25;;;;;;;7.65;4.40;;;8.80;99.90;;;;;;5055414;28;20378;-77
2022/04/24 02:01:51;;;;;;;6.78;3.95;;;8.80;99.90;;;;;;5037414;28;20184;-76
2022/04/24 02:04:22;;;;;;;5.97;3.72;;;8.70;99.90;;;;;;5035525;28;20484;-76
2022/04/24 02:06:51;;;;;;;;;;;8.80;99.90;;;;;;5037412;28;20036;-77
2022/04/24 02:09:17;;;;;;;5.90;3.63;;;8.70;99.90;;;;;;5035557;28;20008;-76
2022/04/24 02:11:43;;;;;;;6.38;3.38;;;8.70;99.90;;;;;;5051231;28;20108;-76
2022/04/24 02:14:10;;;;;;;6.00;3.85;;;8.60;99.90;;;;;;5030348;28;20378;-76
2022/04/24 02:16:36;;;;;;;6.03;3.90;;;8.60;99.90;;;;;;5036094;28;20501;-76
2022/04/24 02:19:01;;;;;;;7.30;4.00;;;8.60;99.90;;;;;;5039293;28;20121;-77
2022/04/24 02:21:28;;;;;;;9.93;3.65;;;8.60;99.90;;;;;;5039191;28;20025;-77
2022/04/24 02:23:55;;;;;;;5.82;3.00;;;8.50;99.90;;;;;;5034412;28;20036;-77
2022/04/24 02:26:21;;;;;;;5.68;3.22;;;8.50;99.90;;;;;;5034486;28;20037;-77
2022/04/24 02:28:47;;;;;;;8.52;3.03;;;8.60;99.90;;;;;;5052196;28;20063;-77
2022/04/24 02:31:13;;;;;;;5.32;3.20;;;8.60;99.90;;;;;;5038991;28;20029;-76
2022/04/24 02:33:39;;;;;;;5.15;3.00;;;8.50;99.90;;;;;;5059265;28;20036;-77
2022/04/24 02:36:05;;;;;;;4.80;3.00;;;8.50;99.90;;;;;;5057474;28;20488;-77
2022/04/24 02:38:31;;;;;;;5.05;3.15;;;8.50;99.90;;;;;;5037868;28;20037;-77
2022/04/24 02:40:56;;;;;;;7.35;3.65;;;8.50;99.90;;;;;;5021542;28;20033;-77
2022/04/24 02:43:22;;;;;;;5.38;3.50;;;8.60;99.90;;;;;;5036254;28;20039;-77
2022/04/24 02:45:48;;;;;;;4.13;2.72;;;8.60;99.90;;;;;;5033587;28;20025;-76
2022/04/24 02:48:14;;;;;;;5.32;3.10;;;8.60;99.90;;;;;;5021892;28;20463;-77
2022/04/24 02:50:39;;;;;;;4.82;2.80;;;8.60;99.90;;;;;;5023131;28;20033;-77
2022/04/24 02:53:06;;;;;;;5.18;3.20;;;8.60;99.90;;;;;;5056699;28;20044;-77
2022/04/24 02:55:31;;;;;;;6.35;3.20;;;8.50;99.90;;;;;;5052988;28;20579;-76
2022/04/24 02:57:57;;;;;;;5.90;3.00;;;8.50;99.90;;;;;;5020379;28;20067;-77
2022/04/24 03:00:24;;;;;;;5.00;2.78;;;8.60;99.90;;;;;;5037379;28;20188;-77
2022/04/24 03:02:51;;;;;;;4.88;2.90;;;8.60;99.90;;;;;;5038013;28;20041;-77
2022/04/24 03:05:19;;;;;;;7.88;3.97;;;8.50;99.90;;;;;;5036427;28;20062;-77
2022/04/24 03:07:48;;;;;;;6.93;3.28;;;8.50;99.90;;;;;;5037332;28;20393;-77
2022/04/24 03:10:15;;;;;;;7.15;3.10;;;8.50;99.90;;;;;;5038963;28;20079;-76
2022/04/24 03:12:41;;;;;;;4.10;2.75;;;8.50;99.90;;;;;;5037531;28;20036;-77
2022/04/24 03:15:09;;;;;;;7.22;3.13;;;8.40;99.90;;;;;;5054913;28;20035;-77
2022/04/24 03:17:35;;;;;;;6.47;3.47;;;8.30;99.90;;;;;;5020771;28;20040;-77
2022/04/24 03:20:03;;;;;;;10.00;3.95;;;8.30;99.90;;;;;;5036374;28;20079;-76
2022/04/24 03:22:30;;;;;;;6.50;3.95;;;8.30;99.90;;;;;;5041158;28;20029;-77
2022/04/24 03:24:57;;;;;;;7.82;2.92;;;8.30;99.90;;;;;;5030112;28;20036;-76
2022/04/24 03:27:23;;;;;;;6.95;3.35;;;8.20;99.90;;;;;;5041967;28;20377;-77
2022/04/24 03:29:49;;;;;;;5.45;3.08;;;8.20;99.90;;;;;;5059246;28;20052;-77
2022/04/24 03:32:15;;;;;;;6.45;3.20;;;8.20;99.90;;;;;;5039924;28;20032;-77
2022/04/24 03:34:40;;;;;;;5.22;3.05;;;8.20;99.90;;;;;;5038830;28;20097;-78
2022/04/24 03:37:06;;;;;;;6.82;3.70;;;8.10;99.90;;;;;;5025343;28;20037;-77
2022/04/24 03:39:32;;;;;;;11.20;3.50;;;8.10;99.90;;;;;;5038554;28;20460;-77
2022/04/24 03:41:58;;;;;;;6.55;3.33;;;8.20;99.90;;;;;;5040302;28;20025;-76
2022/04/24 03:44:23;;;;;;;7.13;3.20;;;8.10;99.90;;;;;;5044322;28;20429;-76
2022/04/24 03:46:49;;;;;;;5.60;3.40;;;8.10;99.90;;;;;;5045913;28;20032;-75
2022/04/24 03:49:16;;;;;;;6.10;3.10;;;8.00;99.90;;;;;;5028187;28;20053;-77
2022/04/24 03:51:42;;;;;;;6.88;4.07;;;8.00;99.90;;;;;;5064809;28;20760;-76
2022/04/24 03:54:08;;;;;;;7.80;3.35;;;8.00;99.90;;;;;;5031621;28;20171;-77
2022/04/24 03:56:34;;;;;;;5.28;3.35;;;7.90;99.90;;;;;;5029910;28;20033;-76
2022/04/24 03:59:00;;;;;;;6.57;3.20;;;7.90;99.90;;;;;;5043424;28;20313;-77
2022/04/24 04:01:25;;;;;;;6.50;2.95;;;7.90;99.90;;;;;;5042024;28;20033;-77
2022/04/24 04:03:51;;;;;;;8.20;3.22;;;7.90;99.90;;;;;;5025953;28;20032;-77
2022/04/24 04:06:17;;;;;;;7.40;3.38;;;7.90;99.90;;;;;;5058172;28;20123;-76
2022/04/24 04:08:43;;;;;;;6.38;3.92;;;7.90;99.90;;;;;;5045361;28;20064;-77
2022/04/24 04:11:08;;;;;;;6.47;3.38;;;7.90;99.90;;;;;;5041538;28;20024;-76
2022/04/24 04:13:35;;;;;;;5.78;3.17;;;7.90;99.90;;;;;;5039399;28;20037;-76
2022/04/24 04:16:01;;;;;;;6.10;3.42;;;7.80;99.90;;;;;;5041418;28;20029;-77
2022/04/24 04:18:26;;;;;;;8.63;3.53;;;7.80;99.90;;;;;;5042952;28;20159;-76
2022/04/24 04:20:52;;;;;;;8.27;4.18;;;7.80;99.90;;;;;;5040816;28;20075;-77
2022/04/24 04:23:18;;;;;;;5.93;3.70;;;7.90;99.90;;;;;;5042137;28;20056;-76
2022/04/24 04:25:43;;;;;;;9.10;4.25;;;7.80;99.90;;;;;;5027798;28;20107;-76
2022/04/24 04:28:09;;;;;;;8.93;4.22;;;7.80;99.90;;;;;;5023073;28;20108;-76
2022/04/24 04:30:35;;;;;;;8.85;3.78;;;7.80;99.90;;;;;;5041713;28;20033;-76
2022/04/24 04:33:01;;;;;;;6.47;3.65;;;7.90;99.90;;;;;;5058363;28;20059;-77
2022/04/24 04:35:26;;;;;;;5.82;3.28;;;7.80;99.90;;;;;;5040478;28;20508;-77
2022/04/24 04:37:52;;;;;;;6.30;3.63;;;7.80;99.90;;;;;;5023057;28;20035;-76
2022/04/24 04:40:20;;;;;;;9.98;4.43;;;7.80;99.90;;;;;;5042046;28;20064;-76
2022/04/24 04:42:46;;;;;;;9.98;4.40;;;7.90;99.90;;;;;;5043283;28;20036;-77
2022/04/24 04:45:12;;;;;;;8.98;4.45;;;7.90;99.90;;;;;;5025590;28;20117;-76
2022/04/24 04:47:37;;;;;;;11.73;4.82;;;7.90;99.90;;;;;;5043533;28;20090;-76
2022/04/24 04:50:04;;;;;;;9.85;4.50;;;7.90;99.90;;;;;;5055734;28;20044;-76
2022/04/24 04:52:29;;;;;;;7.38;4.28;;;7.90;99.90;;;;;;5033297;28;20021;-77
2022/04/24 04:54:55;;;;;;;8.05;4.28;;;8.00;99.90;;;;;;5033106;28;20499;-77
2022/04/24 04:57:21;;;;;;;11.88;5.45;;;8.00;99.90;;;;;;5059948;28;20032;-76
2022/04/24 04:59:46;;;;;;;9.80;5.00;;;8.00;99.90;;;;;;5037163;28;20029;-77
2022/04/24 05:02:12;;;;;;;9.23;5.10;;;8.00;99.90;;;;;;5036319;28;20025;-76
2022/04/24 05:04:38;;;;;;;8.82;5.03;;;8.00;99.90;;;;;;5039661;28;20032;-77
2022/04/24 05:07:05;;;;;;;8.35;4.20;;;8.10;99.90;;;;;;5041688;28;20056;-77
2022/04/24 05:09:30;;;;;;;8.07;4.90;;;8.10;99.90;;;;;;5025562;28;20693;-78
2022/04/24 05:11:56;;;;;;;11.55;5.05;;;8.20;99.90;;;;;;5062016;28;20029;-77
2022/04/24 05:14:21;;;;;;;13.13;5.60;;;8.20;99.90;;;;;;5042811;28;20094;-77
2022/04/24 05:16:47;;;;;;;8.60;4.63;;;8.20;99.90;;;;;;5042982;28;20083;-78
2022/04/24 05:19:13;;;;;;;8.90;4.60;;;8.30;99.90;;;;;;5039176;28;20619;-77
2022/04/24 05:21:38;;;;;;;10.63;5.88;;;8.30;99.90;;;;;;5022453;28;20476;-77
2022/04/24 05:24:04;;;;;;;10.85;4.50;;;8.30;99.90;;;;;;5039421;28;20040;-77
2022/04/24 05:26:31;;;;;;;9.45;5.30;;;8.30;99.90;;;;;;5036173;28;20024;-77
2022/04/24 05:28:57;;;;;;;12.70;5.28;;;8.40;99.90;;;;;;5055083;28;20043;-77
2022/04/24 05:31:22;;;;;;;10.73;4.63;;;8.50;99.90;;;;;;5021694;28;20483;-77
2022/04/24 05:33:48;;;;;;;11.55;4.82;;;8.50;99.90;;;;;;5035019;28;20024;-76
2022/04/24 05:36:13;;;;;;;12.70;4.38;;;8.50;99.90;;;;;;5054845;28;20404;-77
2022/04/24 05:38:39;;;;;;;8.73;5.13;;;8.50;99.90;;;;;;5036355;28;20029;-77
2022/04/24 05:41:05;;;;;;;9.57;4.45;;;8.50;99.90;;;;;;5019014;28;20033;-77
2022/04/24 05:43:31;;;;;;;8.43;4.78;;;8.60;99.90;;;;;;5052009;28;20075;-78
2022/04/24 05:45:57;;;;;;;12.50;4.72;;;8.50;99.90;;;;;;5035015;28;20354;-76
2022/04/24 05:48:23;;;;;;;9.35;5.00;;;8.60;99.90;;;;;;5037716;28;20033;-76
2022/04/24 05:50:51;;;;;;;7.90;3.95;;;8.70;99.90;;;;;;5033366;28;20395;-77
2022/04/24 05:53:17;;;;;;;8.07;4.22;;;8.60;99.90;;;;;;5037963;28;20111;-76
2022/04/24 05:55:43;;;;;;;8.05;4.38;;;8.70;99.90;;;;;;5031794;28;20099;-76
2022/04/24 05:58:09;;;;;;;9.48;4.20;;;8.70;99.90;;;;;;5037030;28;20040;-76
2022/04/24 06:00:36;;;;;;;10.18;4.60;;;8.80;99.90;;;;;;5035649;28;20036;-77
2022/04/24 06:03:02;;;;;;;8.23;4.15;;;8.90;99.90;;;;;;5017364;28;20171;-76
2022/04/24 06:05:28;;;;;;;10.18;4.07;;;9.00;99.90;;;;;;5051388;28;20024;-77
2022/04/24 06:07:55;;;;;;;10.43;3.83;;;9.00;99.90;;;;;;5034708;28;20024;-78
2022/04/24 06:10:21;;;;;;;8.30;3.58;;;9.10;99.90;;;;;;5034670;28;20120;-77
2022/04/24 06:12:48;;;;;;;7.13;3.35;;;9.30;99.90;;;;;;5035730;28;20090;-77
2022/04/24 06:15:15;;;;;;;6.43;3.50;;;9.40;99.90;;;;;;5052393;28;20028;-77
2022/04/24 06:17:47;;;;;;;7.18;4.22;;;9.50;99.90;;;;;;5038367;28;20425;-76
2022/04/24 06:20:14;;;;;;;8.20;4.07;;;9.50;99.90;;;;;;5038552;28;20116;-77
2022/04/24 06:22:47;;;;;;;7.68;3.95;;;9.50;99.90;;;;;;5014241;28;20064;-77
2022/04/24 06:25:24;;;;;;;6.55;3.65;;;9.40;99.90;;;;;;5033912;28;20026;-77
2022/04/24 06:27:51;;;;;;;7.13;3.70;;;9.40;99.90;;;;;;5037409;28;20098;-77
2022/04/24 06:30:21;;;;;;;7.20;4.57;;;9.40;99.90;;;;;;5007503;28;20670;-75
2022/04/24 06:32:47;;;;;;;6.80;3.58;;;9.40;99.90;;;;;;5043311;28;20127;-76
2022/04/24 06:35:15;;;;;;;9.13;3.85;;;9.50;99.90;;;;;;5022559;28;20082;-74
2022/04/24 06:37:43;;;;;;;6.78;3.72;;;9.50;99.90;;;;;;5020545;28;20033;-75
2022/04/24 06:40:10;;;;;;;8.18;3.53;;;9.60;99.90;;;;;;5025130;28;20025;-75
2022/04/24 06:42:52;;;;;;;7.20;3.30;;;9.60;99.90;;;;;;5021213;28;20504;-75
2022/04/24 06:45:26;;;;;;;10.35;3.70;;;9.60;99.90;;;;;;5053369;28;20031;-76
2022/04/24 06:47:53;;;;;;;7.32;3.40;;;9.70;99.90;;;;;;5051662;28;20030;-75
2022/04/24 06:50:19;;;;;;;7.57;3.47;;;9.70;99.90;;;;;;5026874;28;20392;-77
2022/04/24 06:53:14;;;;;;;6.05;3.30;;;9.80;99.90;;;;;;5032246;28;20024;-76
2022/04/24 06:55:42;;;;;;;5.95;3.53;;;9.80;99.90;;;;;;5049379;28;20029;-77
2022/04/24 06:58:09;;;;;;;9.43;4.00;;;9.80;99.90;;;;;;5021506;28;20035;-76
2022/04/24 07:00:42;;;;;;;7.43;3.35;;;9.80;99.90;;;;;;5038894;28;20089;-77
2022/04/24 07:03:21;;;;;;;6.78;3.42;;;9.80;99.90;;;;;;5027914;28;20551;-76
2022/04/24 07:05:53;;;;;;;7.18;3.45;;;9.90;99.90;;;;;;5019696;28;20140;-77
2022/04/24 07:08:19;;;;;;;6.28;3.33;;;9.90;99.90;;;;;;5039428;28;20086;-76
2022/04/24 07:10:45;;;;;;;6.80;3.70;;;9.90;99.90;;;;;;5031915;28;20024;-76
2022/04/24 07:13:11;;;;;;;10.07;3.95;;;9.90;99.90;;;;;;5037848;28;20029;-77
2022/04/24 07:15:38;;;;;;;5.80;3.53;;;9.90;99.90;;;;;;5041040;28;20063;-77
2022/04/24 07:18:13;;;;;;;7.45;3.35;;;9.90;99.90;;;;;;5028639;28;20037;-76
2022/04/24 07:20:39;;;;;;;8.85;3.83;;;10.00;99.90;;;;;;5046244;28;20121;-76
2022/04/24 07:23:05;;;;;;;5.53;3.03;;;10.00;99.90;;;;;;5029089;28;20064;-77
2022/04/24 07:25:40;;;;;;;6.50;3.40;;;10.10;99.90;;;;;;5015209;28;20051;-75
2022/04/24 07:28:07;;;;;;;6.45;3.22;;;10.20;99.90;;;;;;5053060;28;20088;-78
2022/04/24 07:30:33;;;;;;;7.18;3.38;;;10.20;99.90;;;;;;5030442;28;20124;-76
2022/04/24 07:33:00;;;;;;;5.45;3.13;;;10.20;99.90;;;;;;5053923;28;20068;-77
2022/04/24 07:35:31;;;;;;;5.18;3.20;;;10.30;99.90;;;;;;5054948;28;20028;-76
2022/04/24 07:37:57;;;;;;;7.25;3.45;;;10.30;99.90;;;;;;5012978;28;20099;-77
2022/04/24 07:40:26;;;;;;;6.22;3.75;;;10.40;99.90;;;;;;5046646;28;20047;-77
2022/04/24 07:43:00;;;;;;;5.72;2.97;;;10.40;99.90;;;;;;5032975;28;20038;-75
2022/04/24 07:45:30;;;;;;;8.00;4.05;;;10.50;99.90;;;;;;5031141;28;20025;-77
2022/04/24 07:47:58;;;;;;;4.73;2.80;;;10.50;99.90;;;;;;5056044;28;20067;-75
2022/04/24 07:50:26;;;;;;;6.45;3.25;;;10.50;99.90;;;;;;5030544;28;20033;-77
2022/04/24 07:52:53;;;;;;;5.05;2.95;;;10.50;99.70;;;;;;5017938;28;20459;-75
2022/04/24 07:55:22;;;;;;;8.27;2.75;;;10.60;99.20;;;;;;5033506;28;20031;-77
2022/04/24 07:57:48;;;;;;;4.07;2.80;;;10.60;99.40;;;;;;5028937;28;20156;-79
2022/04/24 08:00:16;;;;;;;4.82;2.72;;;10.70;99.10;;;;;;5034225;28;20045;-77
2022/04/24 08:02:49;;;;;;;5.93;3.08;;;10.70;99.30;;;;;;5032152;28;20407;-77
2022/04/24 08:05:29;;;;;;;4.95;2.47;;;10.80;99.00;;;;;;5029549;28;20025;-76
2022/04/24 08:07:56;;;;;;;4.97;2.97;;;10.80;99.30;;;;;;5038926;28;20032;-77
2022/04/24 08:10:23;;;;;;;7.95;3.20;;;10.90;99.20;;;;;;5050154;28;20052;-78
2022/04/24 08:12:49;;;;;;;5.38;3.00;;;10.90;99.10;;;;;;5031134;28;20037;-76
2022/04/24 08:15:16;;;;;;;7.60;2.90;;;11.10;98.90;;;;;;5031809;28;20595;-75
2022/04/24 08:17:42;;;;;;;6.13;3.50;;;11.00;98.50;;;;;;5023082;28;20590;-76
2022/04/24 08:20:10;;;;;;;5.55;2.83;;;11.00;98.50;;;;;;5023164;28;20121;-76
2022/04/24 08:22:42;;;;;;;4.80;3.08;;;11.00;98.50;;;;;;5024663;28;20040;-77
2022/04/24 08:25:09;;;;;;;5.72;3.10;;;11.10;98.40;;;;;;5025872;28;20037;-76
2022/04/24 08:27:36;;;;;;;6.32;2.90;;;11.10;98.00;;;;;;5049036;28;20025;-77
2022/04/24 08:30:07;;;;;;;5.53;2.85;;;11.10;98.10;;;;;;5037071;28;20148;-76
2022/04/24 08:32:34;;;;;;;4.55;2.75;;;11.10;97.70;;;;;;5032853;28;20029;-76
2022/04/24 08:35:00;;;;;;;4.28;2.83;;;11.10;97.40;;;;;;5041495;28;20029;-76
2022/04/24 08:37:26;;;;;;;7.50;3.28;;;11.10;97.10;;;;;;5014793;28;20033;-76
2022/04/24 08:39:53;;;;;;;7.55;3.03;;;11.10;97.20;;;;;;5049374;28;20095;-76
2022/04/24 08:42:21;;;;;;;9.52;3.28;;;11.00;96.90;;;;;;5030683;28;20037;-76
2022/04/24 08:44:57;;;;;;;6.05;2.60;;;11.10;97.00;;;;;;5016999;28;20043;-75
2022/04/24 08:47:25;;;;;;;6.53;2.78;;;11.20;97.10;;;;;;5030550;28;20033;-77
2022/04/24 08:49:56;;;;;;;4.82;3.17;;;11.30;96.80;;;;;;5028784;28;20098;-77
2022/04/24 08:52:22;;;;;;;3.88;2.75;;;11.20;97.00;;;;;;5041867;28;20025;-77
2022/04/24 08:54:50;;;;;;;3.92;2.60;;;11.30;96.90;;;;;;5060439;28;20032;-77
2022/04/24 08:57:17;;;;;;;6.38;3.00;;;11.40;96.70;;;;;;5061923;28;20037;-77
2022/04/24 08:59:43;;;;;;;5.97;3.08;;;11.40;96.80;;;;;;5039649;28;20146;-76
2022/04/24 09:02:10;;;;;;;6.97;2.97;;;11.60;96.70;;;;;;5027517;28;20029;-76
2022/04/24 09:04:39;;;;;;;5.68;2.35;;;11.50;96.50;;;;;;5013788;28;20033;-76
2022/04/24 09:07:06;;;;;;;4.90;2.80;;;11.50;96.00;;;;;;5046333;28;20025;-77
2022/04/24 09:09:47;;;;;;;6.15;2.88;;;11.50;95.60;;;;;;5050189;28;20082;-77
2022/04/24 09:12:17;;;;;;;6.60;3.05;;;11.60;95.80;;;;;;5049670;28;20032;-77
2022/04/24 09:14:51;;;;;;;6.15;2.90;;;11.50;95.40;;;;;;5029130;28;20188;-78
2022/04/24 09:17:21;;;;;;;5.45;3.03;;;11.60;94.90;;;;;;5037889;28;20080;-78
2022/04/24 09:19:47;;;;;;;5.43;2.80;;;11.60;95.00;;;;;;5031411;28;20103;-77
2022/04/24 09:22:13;;;;;;;7.10;2.58;;;11.60;94.80;;;;;;5017110;28;20055;-73
2022/04/24 09:24:44;;;;;;;4.47;2.97;;;11.50;95.10;;;;;;5023673;28;20033;-78
2022/04/24 09:27:25;;;;;;;4.00;2.53;;;11.60;95.40;;;;;;5010876;28;20308;-76
2022/04/24 09:29:55;;;;;;;4.85;2.92;;;11.70;95.40;;;;;;5035091;28;20162;-78
2022/04/24 09:32:23;;;;;;;6.43;3.10;;;11.80;95.60;;;;;;5050047;28;20025;-78
2022/04/24 09:34:51;;;;;;;3.92;2.80;;;11.80;95.70;;;;;;5055342;28;20040;-77
2022/04/24 09:37:17;;;;;;;3.42;2.30;;;11.90;95.20;;;;;;5039394;28;20029;-77
2022/04/24 09:39:43;;;;;;;8.43;2.90;;;11.90;95.20;;;;;;5051053;28;20396;-78
2022/04/24 09:42:14;;;;;;;7.28;3.78;;;12.00;94.50;;;;;;5033531;28;20043;-76
2022/04/24 09:44:53;;;;;;;8.30;3.85;;;12.00;94.10;;;;;;5028347;28;20103;-79
2022/04/24 09:47:24;;;;;;;4.97;2.45;;;12.00;94.60;;;;;;5018027;28;20116;-72
2022/04/24 09:49:51;;;;;;;4.88;3.00;;;12.00;94.90;;;;;;5010752;28;20082;-71
2022/04/24 09:52:22;;;;;;;6.45;3.20;;;12.20;95.50;;;;;;5018274;28;20043;-76
2022/04/24 09:54:50;;;;;;;6.13;3.50;;;12.40;95.60;;;;;;5015190;28;20063;-74
2022/04/24 09:57:17;;;;;;;7.43;2.75;;;12.40;94.70;;;;;;5016603;28;20589;-72
2022/04/24 09:59:45;;;;;;;6.75;3.30;;;12.40;94.60;;;;;;5045240;28;20033;-71
2022/04/24 10:02:14;;;;;;;6.63;2.83;;;12.50;93.80;;;;;;5043624;28;20058;-74
2022/04/24 10:04:40;;;;;;;5.32;3.10;;;12.40;93.40;;;;;;5028797;28;20024;-75
2022/04/24 10:07:08;;;;;;;4.68;2.75;;;12.40;93.50;;;;;;5025904;28;20493;-72
2022/04/24 10:09:36;;;;;;;7.40;2.78;;;12.40;93.50;;;;;;5045233;28;20442;-73
2022/04/24 10:12:23;;;;;;;8.32;3.30;;;12.40;93.60;;;;;;5047287;28;20025;-74
2022/04/24 10:15:03;;;;;;;7.90;2.92;;;12.40;93.60;;;;;;5027806;28;20047;-76
2022/04/24 10:17:59;;;;;;;6.18;2.90;;;12.40;93.50;;;;;;5019579;28;20033;-76
2022/04/24 10:20:47;;;;;;;3.95;2.55;;;12.40;93.40;;;;;;5017624;28;20809;-80
2022/04/24 10:23:13;;;;;;;5.95;3.17;;;12.60;93.50;;;;;;5039056;28;20095;-79
2022/04/24 10:25:43;;;;;;;4.28;2.70;;;12.80;93.40;;;;;;5042009;28;20033;-78
2022/04/24 10:28:17;;;;;;;6.00;2.92;;;13.10;92.70;;;;;;5021434;28;20040;-78
2022/04/24 10:30:47;;;;;;;5.50;2.92;;;13.10;91.90;;;;;;5041698;28;20033;-77
2022/04/24 10:33:22;;;;;;;6.15;2.85;;;13.10;91.80;;;;;;5055547;28;20531;-78
2022/04/24 10:35:53;;;;;;;7.88;2.83;;;13.00;92.10;;;;;;5019476;28;20399;-78
2022/04/24 10:38:23;;;;;;;;;;;13.00;91.60;;;;;;5020065;28;20327;-76
2022/04/24 10:40:59;;;;;;;5.15;2.90;;;12.80;91.60;;;;;;5034327;28;19917;-76
2022/04/24 10:43:25;;;;;;;4.53;2.85;;;12.70;92.00;;;;;;5031667;28;20082;-77
2022/04/24 10:45:52;;;;;;;7.20;3.03;;;12.70;92.40;;;;;;5032342;28;20055;-76
2022/04/24 10:48:19;;;;;;;7.45;3.00;;;12.80;92.50;;;;;;5018660;28;20588;-78
2022/04/24 10:50:47;;;;;;;5.60;3.42;;;12.90;92.50;;;;;;5025661;28;20029;-78
2022/04/24 10:53:13;;;;;;;6.03;3.03;;;13.00;92.10;;;;;;5037667;28;20048;-79
2022/04/24 10:55:40;;;;;;;6.78;2.78;;;12.90;92.30;;;;;;5033347;28;20029;-79
2022/04/24 10:58:06;;;;;;;4.95;3.05;;;13.10;92.20;;;;;;5033646;28;20048;-81
2022/04/24 11:00:38;;;;;;;7.38;2.70;;;13.20;92.10;;;;;;5020204;28;20505;-79
2022/04/24 11:03:15;;;;;;;4.63;2.53;;;13.30;91.70;;;;;;5015085;28;20500;-79
2022/04/24 11:05:47;;;;;;;6.50;3.00;;;13.40;91.60;;;;;;5034757;28;21959;-79
2022/04/24 11:08:20;;;;;;;6.55;3.00;;;13.80;92.10;;;;;;5051425;28;20042;-78
2022/04/24 11:10:48;;;;;;;7.55;2.80;;;14.80;91.20;;;;;;5020421;28;20107;-79
2022/04/24 11:13:20;;;;;;;5.70;3.25;;;16.20;88.30;;;;;;5038990;28;20042;-78
2022/04/24 11:15:48;;;;;;;10.02;3.15;;;16.90;80.10;;;;;;5038137;28;20074;-78
2022/04/24 11:18:24;;;;;;;5.30;2.50;;;16.80;78.40;;;;;;5052011;28;20032;-80
2022/04/24 11:21:03;;;;;;;6.85;3.00;;;17.70;76.70;;;;;;5034930;28;20025;-77
2022/04/24 11:23:33;;;;;;;7.70;3.10;;;17.30;73.30;;;;;;5034733;28;20033;-78
2022/04/24 11:26:00;;;;;;;5.47;2.85;;;17.70;74.10;;;;;;5018496;28;20115;-79
2022/04/24 11:28:40;;;;;;;5.82;2.70;;;17.80;71.60;;;;;;5035350;28;20548;-78
2022/04/24 11:31:22;;;;;;;6.68;3.08;;;17.50;72.10;;;;;;5019540;28;20507;-77
2022/04/24 11:34:00;;;;;;;9.13;3.30;;;16.90;74.30;;;;;;5037503;28;20060;-78
2022/04/24 11:36:34;;;;;;;5.70;3.03;;;17.40;73.40;;;;;;5040122;28;20098;-78
2022/04/24 11:39:03;;;;;;;6.20;3.13;;;17.30;72.40;;;;;;5039306;28;20060;-77
2022/04/24 11:41:30;;;;;;;5.88;3.08;;;17.20;72.40;;;;;;5018829;28;20037;-77
2022/04/24 11:50:13;;;;;;;9.98;3.25;;;16.70;71.70;;;;;;5029308;28;20100;-77
2022/04/24 11:52:24;;;;;;;7.15;3.97;;;16.70;74.60;;;;;;5055342;28;20024;-77
2022/04/24 11:54:51;;;;;;;6.05;2.90;;;16.80;72.80;;;;;;5034969;28;20374;-79
2022/04/24 11:57:19;;;;;;;6.65;3.13;;;16.50;74.00;;;;;;5054178;28;20568;-78
2022/04/24 11:59:56;;;;;;;7.95;3.47;;;16.50;74.60;;;;;;5037163;28;20051;-77
2022/04/24 12:02:27;;;;;;;8.13;3.38;;;16.90;75.10;;;;;;5037842;28;20029;-78
2022/04/24 12:04:54;;;;;;;6.93;3.10;;;17.60;72.90;;;;;;5023171;28;20031;-78
2022/04/24 12:07:28;;;;;;;8.27;3.08;;;18.00;73.10;;;;;;5057018;28;20528;-78
2022/04/24 12:09:59;;;;;;;8.02;3.80;;;18.20;69.50;;;;;;5018707;28;20462;-78
2022/04/24 12:12:25;;;;;;;7.10;3.60;;;17.90;68.50;;;;;;5019227;28;20033;-76
2022/04/24 12:14:54;;;;;;;5.43;3.40;;;17.40;70.00;;;;;;5040203;28;20146;-76
2022/04/24 12:17:21;;;;;;;6.55;3.30;;;17.10;71.10;;;;;;5029069;28;20121;-78
2022/04/24 12:19:51;;;;;;;25.48;13.23;;;16.90;70.70;;;;;;5018212;28;20024;-79
2022/04/24 12:22:26;;;;;;;6.30;3.90;;;16.30;72.00;;;;;;5051355;28;20040;-78
2022/04/24 12:24:52;;;;;;;26.75;16.17;;;16.00;73.50;;;;;;5019132;28;20553;-77
2022/04/24 12:27:19;;;;;;;10.43;3.75;;;15.60;74.60;;;;;;5034366;28;20056;-77
2022/04/24 12:29:50;;;;;;;7.10;3.50;;;15.30;75.80;;;;;;5033634;28;20032;-78
2022/04/24 12:32:27;;;;;;;9.00;4.15;;;15.00;76.70;;;;;;5036323;28;20025;-79
2022/04/24 12:34:52;;;;;;;7.47;3.70;;;15.10;77.30;;;;;;5037406;28;20121;-78
2022/04/24 12:37:29;;;;;;;10.52;4.50;;;15.40;77.30;;;;;;5054768;28;20355;-79
2022/04/24 12:39:54;;;;;;;8.25;3.55;;;16.00;77.00;;;;;;5037701;28;20230;-78
2022/04/24 12:42:20;;;;;;;6.05;3.10;;;17.10;74.80;;;;;;5043053;28;20495;-78
2022/04/24 12:44:48;;;;;;;5.95;2.92;;;18.10;72.50;;;;;;5038686;28;20035;-77
2022/04/24 12:47:13;;;;;;;6.25;3.40;;;19.10;70.00;;;;;;5056599;28;20024;-79
2022/04/24 12:49:40;;;;;;;8.40;3.95;;;19.60;66.80;;;;;;5036297;28;20511;-79
2022/04/24 12:52:06;;;;;;;8.18;3.85;;;19.00;65.10;;;;;;5036252;28;20033;-79
2022/04/24 12:54:32;;;;;;;7.40;3.92;;;17.70;67.00;;;;;;5034059;28;20373;-78
2022/04/24 12:56:58;;;;;;;8.13;3.88;;;16.90;69.10;;;;;;5035562;28;20031;-77
2022/04/24 12:59:25;;;;;;;9.00;4.38;;;16.10;71.90;;;;;;5037942;28;20135;-77
2022/04/24 13:01:52;;;;;;;9.02;4.13;;;15.30;74.20;;;;;;5034271;28;20068;-77
2022/04/24 13:04:19;;;;;;;7.40;4.07;;;14.90;76.20;;;;;;5033411;28;20041;-78